createdAt,value
2023-02-16T00:01:56.521Z,22.70
2023-02-16T00:04:29.060Z,25.00
2023-02-16T00:06:57.578Z,27.00
2023-02-16T00:09:25.469Z,27.73
2023-02-16T00:12:12.070Z,26.10
2023-02-16T00:14:40.500Z,26.20
2023-02-16T00:17:10.651Z,25.13
2023-02-16T00:19:39.238Z,24.80
2023-02-16T00:22:07.502Z,27.47
2023-02-16T00:24:36.463Z,25.50
2023-02-16T00:27:03.718Z,26.80
2023-02-16T00:29:37.754Z,27.77
2023-02-16T00:32:05.989Z,25.80
2023-02-16T00:34:38.799Z,27.07
2023-02-16T00:37:09.519Z,26.90
2023-02-16T00:39:37.441Z,26.23
2023-02-16T00:42:10.825Z,25.93
2023-02-16T00:44:48.149Z,24.97
2023-02-16T00:47:30.983Z,25.98
2023-02-16T00:49:58.360Z,25.27
2023-02-16T00:52:28.342Z,26.17
2023-02-16T00:54:56.981Z,23.50
2023-02-16T00:57:24.187Z,24.17
2023-02-16T00:59:53.996Z,24.67
2023-02-16T01:02:21.223Z,26.10
2023-02-16T01:57:06.077Z,22.27
2023-02-16T02:00:01.289Z,24.13
2023-02-16T02:02:34.166Z,24.30
2023-02-16T02:05:25.839Z,24.77
2023-02-16T02:08:12.775Z,23.37
2023-02-16T02:10:52.293Z,24.02
2023-02-16T02:13:34.478Z,24.77
2023-02-16T02:16:02.342Z,22.83
2023-02-16T02:18:30.466Z,24.10
2023-02-16T02:21:28.546Z,24.10
2023-02-16T02:24:23.260Z,23.45
2023-02-16T02:27:05.660Z,22.23
2023-02-16T02:29:44.947Z,23.43
2023-02-16T02:32:50.096Z,23.20
2023-02-16T02:35:33.985Z,23.60
2023-02-16T02:38:01.008Z,23.67
2023-02-16T02:40:27.633Z,24.30
2023-02-16T02:46:03.890Z,22.70
2023-02-16T02:48:31.881Z,24.10
2023-02-16T02:51:33.990Z,23.23
2023-02-16T02:54:32.813Z,23.17
2023-02-16T02:58:01.748Z,21.97
2023-02-16T03:00:41.957Z,23.33
2023-02-16T03:03:30.559Z,23.10
2023-02-16T03:06:11.772Z,22.00
2023-02-16T03:08:41.855Z,22.87
2023-02-16T03:11:34.438Z,23.03
2023-02-16T03:14:04.255Z,23.27
2023-02-16T03:16:39.865Z,21.07
2023-02-16T03:19:25.499Z,22.63
2023-02-16T03:22:10.742Z,24.23
2023-02-16T03:24:57.533Z,24.40
2023-02-16T03:27:50.629Z,23.08
2023-02-16T03:30:18.715Z,22.50
2023-02-16T03:32:46.640Z,23.57
2023-02-16T03:35:13.341Z,24.00
2023-02-16T03:37:44.555Z,23.13
2023-02-16T03:40:29.419Z,23.30
2023-02-16T03:42:58.021Z,22.80
2023-02-16T03:45:25.682Z,21.70
2023-02-16T03:47:54.220Z,22.23
2023-02-16T03:50:22.720Z,23.70
2023-02-16T03:52:50.604Z,23.97
2023-02-16T03:55:18.215Z,21.90
2023-02-16T03:57:46.442Z,22.77
2023-02-16T04:00:16.177Z,21.70
2023-02-16T04:02:43.769Z,21.10
2023-02-16T04:05:12.509Z,21.90
2023-02-16T04:07:43.243Z,23.27
2023-02-16T04:10:11.571Z,23.33
2023-02-16T04:12:39.595Z,24.63
2023-02-16T04:15:13.862Z,23.80
2023-02-16T04:17:41.941Z,25.63
2023-02-16T04:20:12.707Z,25.70
2023-02-16T04:22:40.732Z,24.00
2023-02-16T04:25:11.018Z,23.97
2023-02-16T04:27:41.417Z,22.90
2023-02-16T04:30:12.796Z,22.83
2023-02-16T04:32:40.938Z,23.20
2023-02-16T04:35:08.620Z,21.97
2023-02-16T04:37:36.781Z,22.40
2023-02-16T04:40:06.413Z,23.40
2023-02-16T04:42:34.249Z,22.63
2023-02-16T04:45:02.069Z,23.27
2023-02-16T04:47:29.987Z,25.70
2023-02-16T04:49:58.061Z,23.97
2023-02-16T04:52:26.060Z,25.17
2023-02-16T04:54:54.197Z,21.67
2023-02-16T04:57:24.281Z,25.03
2023-02-16T04:59:53.323Z,23.57
2023-02-16T05:02:21.646Z,24.00
2023-02-16T05:04:49.837Z,23.80
2023-02-16T05:07:18.106Z,23.63
2023-02-16T05:09:47.231Z,23.87
2023-02-16T05:12:34.041Z,24.63
2023-02-16T05:15:02.338Z,23.80
2023-02-16T05:17:36.206Z,23.30
2023-02-16T05:20:04.703Z,24.50
2023-02-16T05:22:34.638Z,25.27
2023-02-16T05:25:02.884Z,22.93
2023-02-16T05:27:31.101Z,23.27
2023-02-16T05:30:00.706Z,23.00
2023-02-16T05:32:29.093Z,24.90
2023-02-16T05:34:57.549Z,24.20
2023-02-16T05:37:28.544Z,24.40
2023-02-16T05:39:56.928Z,23.40
2023-02-16T05:42:25.725Z,22.23
2023-02-16T05:44:53.626Z,23.43
2023-02-16T05:47:23.024Z,22.57
2023-02-16T05:49:51.001Z,23.30
2023-02-16T05:52:19.998Z,23.33
2023-02-16T05:54:48.127Z,22.07
2023-02-16T05:57:16.962Z,22.83
2023-02-16T05:59:45.205Z,23.47
2023-02-16T06:02:14.093Z,20.97
2023-02-16T06:04:42.347Z,23.10
2023-02-16T06:07:10.981Z,23.43
2023-02-16T06:09:40.056Z,23.43
2023-02-16T06:12:08.820Z,24.10
2023-02-16T06:14:38.227Z,23.57
2023-02-16T06:17:06.900Z,22.67
2023-02-16T06:19:35.095Z,22.53
2023-02-16T06:22:03.323Z,23.23
2023-02-16T06:24:32.268Z,23.00
2023-02-16T06:27:00.564Z,23.37
2023-02-16T06:29:29.435Z,22.60
2023-02-16T06:31:57.801Z,24.77
2023-02-16T06:34:26.253Z,25.03
2023-02-16T06:36:53.812Z,23.53
2023-02-16T06:39:21.906Z,23.53
2023-02-16T06:41:51.054Z,24.47
2023-02-16T06:44:19.367Z,24.53
2023-02-16T06:46:47.922Z,24.07
2023-02-16T06:49:21.063Z,23.00
2023-02-16T06:51:48.873Z,22.53
2023-02-16T06:54:16.300Z,25.20
2023-02-16T06:56:44.312Z,24.00
2023-02-16T06:59:15.110Z,24.93
2023-02-16T07:01:45.228Z,26.07
2023-02-16T07:04:13.474Z,25.70
2023-02-16T07:06:41.426Z,27.47
2023-02-16T07:09:11.652Z,25.87
2023-02-16T07:11:41.272Z,24.83
2023-02-16T07:14:09.550Z,24.07
2023-02-16T07:16:42.099Z,24.80
2023-02-16T07:19:10.507Z,26.13
2023-02-16T07:21:38.140Z,25.53
2023-02-16T07:24:06.551Z,25.60
2023-02-16T07:26:34.381Z,26.63
2023-02-16T07:29:03.020Z,25.07
2023-02-16T07:31:30.963Z,25.77
2023-02-16T07:33:59.062Z,24.77
2023-02-16T07:36:26.744Z,25.67
2023-02-16T07:38:55.250Z,27.27
2023-02-16T07:41:24.805Z,28.90
2023-02-16T07:43:53.726Z,27.27
2023-02-16T07:46:22.298Z,29.00
2023-02-16T07:48:51.417Z,28.57
2023-02-16T07:51:45.667Z,31.10
2023-02-16T07:54:14.459Z,28.67
2023-02-16T07:56:43.470Z,28.03
2023-02-16T07:59:11.886Z,28.83
2023-02-16T08:01:41.794Z,28.90
2023-02-16T08:04:14.229Z,28.50
2023-02-16T08:06:48.784Z,28.27
2023-02-16T08:09:17.536Z,29.77
2023-02-16T08:11:46.711Z,28.63
2023-02-16T08:14:16.668Z,26.73
2023-02-16T08:16:44.849Z,23.67
2023-02-16T08:19:13.840Z,22.93
2023-02-16T08:21:42.220Z,22.93
2023-02-16T08:24:14.106Z,23.87
2023-02-16T08:26:43.223Z,24.63
2023-02-16T08:29:12.784Z,23.73
2023-02-16T08:31:41.669Z,25.33
2023-02-16T08:34:09.689Z,25.57
2023-02-16T08:36:38.643Z,24.43
2023-02-16T08:39:08.565Z,26.00
2023-02-16T08:41:37.114Z,26.27
2023-02-16T08:44:06.965Z,26.20
2023-02-16T08:46:34.957Z,25.87
2023-02-16T08:49:03.258Z,25.97
2023-02-16T08:51:33.132Z,27.43
2023-02-16T08:54:00.329Z,27.40
2023-02-16T08:56:29.831Z,29.47
2023-02-16T08:58:57.745Z,28.87
2023-02-16T09:01:25.552Z,30.83
2023-02-16T09:03:53.846Z,31.40
2023-02-16T09:06:22.572Z,34.63
2023-02-16T09:08:54.445Z,31.97
2023-02-16T09:11:22.075Z,29.60
2023-02-16T09:13:50.794Z,27.63
2023-02-16T09:16:20.660Z,27.97
2023-02-16T09:18:48.641Z,29.30
2023-02-16T09:21:18.479Z,28.07
2023-02-16T09:23:48.161Z,29.33
2023-02-16T09:26:16.686Z,28.30
2023-02-16T09:28:43.609Z,29.60
2023-02-16T09:31:10.502Z,29.03
2023-02-16T09:33:38.461Z,31.47
2023-02-16T09:36:09.262Z,30.70
2023-02-16T09:38:36.817Z,30.13
2023-02-16T09:41:27.560Z,30.23
2023-02-16T09:44:17.814Z,32.23
2023-02-16T09:46:49.800Z,32.83
2023-02-16T09:49:29.201Z,33.10
2023-02-16T09:52:23.936Z,34.07
2023-02-16T09:55:00.704Z,32.23
2023-02-16T09:57:49.142Z,33.67
2023-02-16T10:00:34.623Z,32.43
2023-02-16T10:03:23.945Z,34.13
2023-02-16T10:06:22.182Z,34.00
2023-02-16T10:08:57.245Z,33.03
2023-02-16T10:11:38.828Z,31.87
2023-02-16T10:14:08.997Z,33.07
2023-02-16T10:16:40.175Z,33.80
2023-02-16T10:19:36.442Z,34.57
2023-02-16T10:22:04.326Z,34.07
2023-02-16T10:24:32.334Z,35.07
2023-02-16T10:27:08.363Z,34.97
2023-02-16T10:29:36.322Z,35.35
2023-02-16T10:32:29.281Z,34.87
2023-02-16T10:35:20.717Z,35.40
2023-02-16T10:38:10.887Z,34.93
2023-02-16T10:41:01.578Z,36.10
2023-02-16T10:43:40.034Z,35.97
2023-02-16T10:46:07.755Z,36.17
2023-02-16T10:48:35.620Z,35.33
2023-02-16T10:51:06.974Z,36.70
2023-02-16T10:53:39.715Z,36.77
2023-02-16T10:56:32.890Z,37.50
2023-02-16T10:59:00.262Z,37.80
2023-02-16T11:01:54.104Z,35.40
2023-02-16T11:04:36.081Z,35.97
2023-02-16T11:07:06.121Z,35.10
2023-02-16T11:09:33.810Z,35.53
2023-02-16T11:12:00.623Z,36.50
2023-02-16T11:14:30.509Z,36.67
2023-02-16T11:17:13.718Z,35.83
2023-02-16T11:19:48.361Z,34.30
2023-02-16T11:22:32.488Z,34.07
2023-02-16T11:25:18.456Z,34.50
2023-02-16T11:28:21.215Z,35.87
2023-02-16T11:30:48.732Z,34.50
2023-02-16T11:33:25.162Z,33.23
2023-02-16T11:35:52.873Z,33.97
2023-02-16T11:38:27.060Z,35.33
2023-02-16T11:40:54.028Z,34.60
2023-02-16T11:43:20.818Z,36.50
2023-02-16T11:46:02.114Z,37.97
2023-02-16T11:48:31.535Z,34.60
2023-02-16T11:51:06.593Z,35.93
2023-02-16T11:53:35.424Z,35.13
2023-02-16T11:56:28.411Z,35.13
2023-02-16T11:59:30.513Z,34.50
2023-02-16T12:02:03.425Z,35.10
2023-02-16T12:05:01.086Z,38.10
2023-02-16T12:07:40.458Z,35.72
2023-02-16T12:10:32.154Z,35.13
2023-02-16T12:13:08.669Z,36.20
2023-02-16T12:15:51.204Z,35.75
2023-02-16T12:18:34.425Z,36.27
2023-02-16T12:21:37.353Z,37.43
2023-02-16T12:24:32.801Z,38.90
2023-02-16T12:27:04.422Z,38.37
2023-02-16T12:30:34.116Z,38.07
2023-02-16T12:33:34.937Z,37.73
2023-02-16T12:36:20.206Z,37.93
2023-02-16T12:39:16.657Z,39.20
2023-02-16T12:42:34.679Z,37.93
2023-02-16T12:45:09.404Z,38.20
2023-02-16T12:47:38.620Z,39.63
2023-02-16T12:50:08.796Z,40.87
2023-02-16T12:53:05.324Z,38.87
2023-02-16T12:55:52.451Z,40.93
2023-02-16T12:58:33.911Z,40.60
2023-02-16T13:01:07.530Z,40.30
2023-02-16T13:03:40.650Z,42.10
2023-02-16T13:06:40.337Z,42.87
2023-02-16T13:09:54.968Z,43.20
2023-02-16T13:12:39.232Z,43.27
2023-02-16T13:15:20.734Z,44.93
2023-02-16T13:17:52.406Z,43.10
2023-02-16T13:20:21.617Z,43.37
2023-02-16T13:22:55.122Z,42.63
2023-02-16T13:25:28.096Z,45.27
2023-02-16T13:28:03.951Z,45.50
2023-02-16T13:30:48.711Z,43.28
2023-02-16T13:33:24.661Z,46.90
2023-02-16T13:36:19.137Z,44.92
2023-02-16T13:39:03.443Z,45.13
2023-02-16T13:41:34.322Z,45.03
2023-02-16T13:44:09.776Z,45.53
2023-02-16T13:46:42.537Z,46.23
2023-02-16T13:49:32.588Z,46.90
2023-02-16T13:51:59.552Z,46.77
2023-02-16T13:54:34.730Z,48.20
2023-02-16T13:57:06.192Z,48.50
2023-02-16T13:59:36.704Z,49.53
2023-02-16T14:02:05.052Z,48.27
2023-02-16T14:04:32.805Z,50.93
2023-02-16T14:07:07.362Z,50.47
2023-02-16T14:09:39.967Z,51.83
2023-02-16T14:12:12.586Z,51.50
2023-02-16T14:14:42.551Z,51.03
2023-02-16T14:17:14.923Z,52.20
2023-02-16T14:20:22.950Z,53.27
2023-02-16T14:25:20.492Z,52.27
2023-02-16T14:27:52.484Z,53.00
2023-02-16T14:30:43.410Z,55.67
2023-02-16T14:33:13.306Z,56.80
2023-02-16T14:35:42.050Z,57.00
2023-02-16T14:38:20.889Z,55.93
2023-02-16T14:40:58.150Z,54.47
2023-02-16T14:43:31.451Z,57.50
2023-02-16T14:46:22.194Z,55.63
2023-02-16T14:48:55.069Z,54.93
2023-02-16T14:51:33.937Z,56.43
2023-02-16T14:54:37.747Z,58.27
2023-02-16T14:57:16.829Z,58.17
2023-02-16T14:59:57.823Z,60.00
2023-02-16T15:02:26.248Z,60.00
2023-02-16T15:04:54.411Z,58.57
2023-02-16T15:07:22.717Z,59.47
2023-02-16T15:09:57.450Z,60.23
2023-02-16T15:12:27.885Z,58.70
2023-02-16T15:14:59.798Z,59.23
2023-02-16T15:17:45.012Z,59.10
2023-02-16T15:20:58.737Z,59.00
2023-02-16T15:23:27.490Z,58.23
2023-02-16T15:26:16.820Z,61.77
2023-02-16T15:28:44.383Z,61.03
2023-02-16T15:31:21.794Z,59.30
2023-02-16T15:34:33.390Z,59.63
2023-02-16T15:37:23.557Z,59.30
2023-02-16T15:40:08.705Z,58.97
2023-02-16T15:42:38.315Z,60.23
2023-02-16T15:45:26.593Z,62.23
2023-02-16T15:47:54.437Z,67.30
2023-02-16T15:50:27.008Z,68.03
2023-02-16T15:52:55.002Z,70.77
2023-02-16T15:55:23.160Z,66.97
2023-02-16T15:57:51.332Z,71.57
2023-02-16T16:00:20.987Z,70.43
2023-02-16T16:02:54.006Z,68.60
2023-02-16T16:05:27.228Z,70.10
2023-02-16T16:07:55.137Z,70.67
2023-02-16T16:10:26.225Z,71.63
2023-02-16T16:12:57.946Z,69.60
2023-02-16T16:15:26.470Z,70.40
2023-02-16T16:17:54.789Z,74.27
2023-02-16T16:20:27.686Z,74.30
2023-02-16T16:23:17.753Z,70.53
2023-02-16T16:25:46.538Z,71.73
2023-02-16T16:28:29.091Z,71.17
2023-02-16T16:31:14.996Z,70.07
2023-02-16T16:34:07.350Z,70.40
2023-02-16T16:36:47.006Z,71.93
2023-02-16T16:39:17.194Z,72.53
2023-02-16T16:42:16.105Z,69.40
2023-02-16T16:44:45.648Z,71.03
2023-02-16T16:47:12.688Z,73.23
2023-02-16T16:49:55.410Z,73.57
2023-02-16T16:52:31.270Z,70.10
2023-02-16T16:54:59.856Z,72.45
2023-02-16T16:57:27.754Z,73.70
2023-02-16T16:59:56.487Z,73.47
2023-02-16T17:02:24.604Z,75.73
2023-02-16T17:04:52.094Z,75.93
2023-02-16T17:07:20.171Z,73.73
2023-02-16T17:09:48.218Z,76.30
2023-02-16T17:12:16.546Z,73.30
2023-02-16T17:14:44.572Z,75.33
2023-02-16T17:17:12.764Z,73.43
2023-02-16T17:19:42.453Z,75.07
2023-02-16T17:22:17.562Z,73.90
2023-02-16T17:24:48.490Z,74.80
2023-02-16T17:27:16.815Z,75.10
2023-02-16T17:29:46.717Z,76.47
2023-02-16T17:32:15.045Z,77.27
2023-02-16T17:34:42.891Z,74.97
2023-02-16T17:37:10.095Z,80.73
2023-02-16T17:39:38.070Z,79.03
2023-02-16T17:42:12.307Z,80.50
2023-02-16T17:44:40.037Z,80.77
2023-02-16T17:47:07.192Z,85.20
2023-02-16T17:49:35.252Z,82.87
2023-02-16T17:52:03.696Z,80.37
2023-02-16T17:54:31.976Z,80.23
2023-02-16T17:56:59.496Z,76.93
2023-02-16T17:59:29.303Z,80.23
2023-02-16T18:01:58.320Z,82.40
2023-02-16T18:04:26.510Z,82.13
2023-02-16T18:06:54.526Z,85.00
2023-02-16T18:09:24.494Z,85.90
2023-02-16T18:11:52.169Z,85.90
2023-02-16T18:14:19.852Z,82.97
2023-02-16T18:16:52.394Z,87.00
2023-02-16T18:19:21.137Z,85.30
2023-02-16T18:21:49.224Z,81.93
2023-02-16T18:24:17.075Z,83.87
2023-02-16T18:26:48.345Z,83.57
2023-02-16T18:29:17.816Z,83.37
2023-02-16T18:31:45.614Z,84.33
2023-02-16T18:34:13.840Z,85.97
2023-02-16T18:36:41.908Z,85.33
2023-02-16T18:39:10.722Z,88.50
2023-02-16T18:41:38.822Z,86.07
2023-02-16T18:44:11.937Z,87.53
2023-02-16T18:46:39.762Z,87.67
2023-02-16T18:49:07.597Z,92.77
2023-02-16T18:51:35.693Z,92.47
2023-02-16T18:54:03.900Z,89.37
2023-02-16T18:56:32.882Z,85.93
2023-02-16T18:59:01.369Z,84.67
2023-02-16T19:01:29.798Z,83.97
2023-02-16T19:04:00.397Z,81.53
2023-02-16T19:06:28.453Z,87.10
2023-02-16T19:08:58.410Z,87.63
2023-02-16T19:11:25.678Z,84.83
2023-02-16T19:13:54.021Z,83.00
2023-02-16T19:16:21.748Z,84.97
2023-02-16T19:18:50.466Z,86.13
2023-02-16T19:21:19.105Z,84.97
2023-02-16T19:23:46.812Z,85.13
2023-02-16T19:26:15.977Z,86.00
2023-02-16T19:28:45.520Z,88.23
2023-02-16T19:31:18.153Z,86.93
2023-02-16T19:33:45.929Z,87.70
2023-02-16T19:36:14.049Z,89.17
2023-02-16T19:38:42.336Z,88.73
2023-02-16T19:41:17.884Z,87.97
2023-02-16T19:43:45.006Z,84.87
2023-02-16T19:46:12.392Z,88.40
2023-02-16T19:48:40.291Z,88.67
2023-02-16T19:51:07.741Z,87.87
2023-02-16T19:53:36.103Z,86.87
2023-02-16T19:56:12.656Z,85.63
2023-02-16T19:58:40.791Z,75.07
2023-02-16T20:01:19.551Z,74.37
2023-02-16T20:03:47.290Z,77.70
2023-02-16T20:06:19.529Z,78.23
2023-02-16T20:08:46.906Z,79.37
2023-02-16T20:11:18.488Z,81.70
2023-02-16T20:13:46.543Z,78.83
2023-02-16T20:16:14.639Z,80.40
2023-02-16T20:18:42.409Z,78.13
2023-02-16T20:21:13.418Z,73.10
2023-02-16T20:23:41.100Z,72.23
2023-02-16T20:26:53.882Z,73.80
2023-02-16T20:29:21.433Z,74.90
2023-02-16T20:31:51.795Z,78.10
2023-02-16T20:34:20.066Z,79.60
2023-02-16T20:36:48.055Z,79.30
2023-02-16T20:39:15.796Z,78.27
2023-02-16T20:41:43.329Z,78.63
2023-02-16T20:44:11.970Z,77.47
2023-02-16T20:46:39.762Z,73.93
2023-02-16T20:49:09.248Z,75.83
2023-02-16T20:51:36.819Z,75.63
2023-02-16T20:54:05.100Z,70.87
2023-02-16T20:56:33.069Z,70.07
2023-02-16T20:59:04.263Z,70.60
2023-02-16T21:01:56.640Z,74.40
2023-02-16T21:04:25.468Z,74.07
2023-02-16T21:06:53.423Z,75.80
2023-02-16T21:09:21.659Z,75.67
2023-02-16T21:11:49.992Z,75.90
2023-02-16T21:14:17.775Z,75.97
2023-02-16T21:16:44.776Z,75.67
2023-02-16T21:19:22.510Z,74.30
2023-02-16T21:21:50.490Z,79.60
2023-02-16T21:24:18.978Z,79.27
2023-02-16T21:26:47.231Z,76.47
2023-02-16T21:29:14.899Z,76.57
2023-02-16T21:31:42.980Z,73.20
2023-02-16T21:34:11.470Z,75.00
2023-02-16T21:36:39.567Z,71.00
2023-02-16T21:39:07.647Z,77.03
2023-02-16T21:41:35.410Z,76.53
2023-02-16T21:44:05.243Z,71.43
2023-02-16T21:46:57.323Z,72.77
2023-02-16T21:49:25.498Z,73.43
2023-02-16T21:51:52.876Z,73.53
2023-02-16T21:54:40.581Z,75.20
2023-02-16T21:57:08.772Z,70.63
2023-02-16T21:59:36.952Z,73.93
2023-02-16T22:02:05.115Z,70.70
2023-02-16T22:04:33.093Z,65.17
2023-02-16T22:07:01.096Z,62.17
2023-02-16T22:09:29.112Z,63.17
2023-02-16T22:11:57.331Z,65.17
2023-02-16T22:14:25.376Z,63.23
2023-02-16T22:17:06.291Z,64.40
2023-02-16T22:19:37.016Z,64.87
2023-02-16T22:22:05.451Z,66.17
2023-02-16T22:24:41.908Z,68.67
2023-02-16T22:27:09.871Z,67.63
2023-02-16T22:29:38.364Z,67.27
2023-02-16T22:32:07.047Z,69.37
2023-02-16T22:34:37.020Z,68.57
2023-02-16T22:37:05.662Z,70.20
2023-02-16T22:39:32.913Z,68.07
2023-02-16T22:42:01.060Z,68.00
2023-02-16T22:44:29.081Z,67.60
2023-02-16T22:46:57.011Z,67.97
2023-02-16T22:49:31.462Z,70.60
2023-02-16T22:51:59.615Z,66.20
2023-02-16T22:54:27.246Z,70.50
2023-02-16T22:56:55.337Z,70.03
2023-02-16T22:59:23.537Z,65.80
2023-02-16T23:01:51.360Z,68.17
2023-02-16T23:04:19.009Z,77.20
2023-02-16T23:06:51.743Z,69.47
2023-02-16T23:09:21.472Z,72.43
2023-02-16T23:11:49.553Z,71.73
2023-02-16T23:14:17.871Z,73.67
2023-02-16T23:16:46.551Z,72.20
2023-02-16T23:19:15.260Z,69.07
2023-02-16T23:21:42.864Z,66.17
2023-02-16T23:24:16.779Z,66.90
2023-02-16T23:26:44.578Z,64.03
2023-02-16T23:29:12.279Z,65.77
2023-02-16T23:31:40.586Z,67.27
2023-02-16T23:34:07.837Z,69.67
2023-02-16T23:36:37.350Z,72.70
2023-02-16T23:39:07.672Z,65.40
2023-02-16T23:41:36.313Z,73.93
2023-02-16T23:44:04.715Z,75.57
2023-02-16T23:46:33.030Z,76.50
2023-02-16T23:49:00.860Z,75.97
2023-02-16T23:51:28.218Z,73.87
2023-02-16T23:53:55.736Z,71.53
2023-02-16T23:56:27.170Z,71.23
2023-02-16T23:58:57.464Z,70.23
